sensor_id;sensor_type;location;lat;lon;timestamp;pressure;altitude;pressure_sealevel;temperature;humidity
74329;BME280;62749;51.982;5.916;2023-01-19T00:00:53;99845.06;;;2.07;91.27
74329;BME280;62749;51.982;5.916;2023-01-19T00:03:25;99850.19;;;2.10;91.25
74329;BME280;62749;51.982;5.916;2023-01-19T00:05:54;99846.81;;;2.06;91.36
74329;BME280;62749;51.982;5.916;2023-01-19T00:08:24;99848.56;;;2.06;91.33
74329;BME280;62749;51.982;5.916;2023-01-19T00:10:53;99845.78;;;2.13;91.41
74329;BME280;62749;51.982;5.916;2023-01-19T00:13:22;99834.44;;;2.16;91.56
74329;BME280;62749;51.982;5.916;2023-01-19T00:15:52;99833.66;;;2.12;91.35
74329;BME280;62749;51.982;5.916;2023-01-19T00:18:21;99837.00;;;2.18;91.52
74329;BME280;62749;51.982;5.916;2023-01-19T00:20:53;99843.88;;;2.22;91.35
74329;BME280;62749;51.982;5.916;2023-01-19T00:23:23;99856.19;;;2.15;91.05
74329;BME280;62749;51.982;5.916;2023-01-19T00:25:52;99844.09;;;2.12;91.42
74329;BME280;62749;51.982;5.916;2023-01-19T00:28:22;99840.31;;;2.24;91.29
74329;BME280;62749;51.982;5.916;2023-01-19T00:30:51;99836.78;;;2.27;90.92
74329;BME280;62749;51.982;5.916;2023-01-19T00:33:20;99838.59;;;2.25;91.11
74329;BME280;62749;51.982;5.916;2023-01-19T00:35:53;99843.72;;;2.28;91.09
74329;BME280;62749;51.982;5.916;2023-01-19T00:38:23;99838.56;;;2.26;91.00
74329;BME280;62749;51.982;5.916;2023-01-19T00:40:52;99835.72;;;2.36;90.89
74329;BME280;62749;51.982;5.916;2023-01-19T00:43:22;99839.31;;;2.32;90.85
74329;BME280;62749;51.982;5.916;2023-01-19T00:45:48;99839.38;;;2.27;90.80
74329;BME280;62749;51.982;5.916;2023-01-19T00:48:18;99831.72;;;2.21;91.24
74329;BME280;62749;51.982;5.916;2023-01-19T00:50:48;99844.59;;;2.28;90.85
74329;BME280;62749;51.982;5.916;2023-01-19T00:53:20;99836.91;;;2.22;91.06
74329;BME280;62749;51.982;5.916;2023-01-19T00:55:49;99833.56;;;2.15;91.01
74329;BME280;62749;51.982;5.916;2023-01-19T00:58:18;99836.88;;;2.24;91.04
74329;BME280;62749;51.982;5.916;2023-01-19T01:00:48;99835.94;;;2.26;91.13
74329;BME280;62749;51.982;5.916;2023-01-19T01:03:17;99837.78;;;2.21;90.58
74329;BME280;62749;51.982;5.916;2023-01-19T01:05:53;99830.00;;;2.20;90.73
74329;BME280;62749;51.982;5.916;2023-01-19T01:08:25;99828.44;;;2.12;91.18
74329;BME280;62749;51.982;5.916;2023-01-19T01:10:55;99830.94;;;2.17;91.52
74329;BME280;62749;51.982;5.916;2023-01-19T01:13:24;99829.19;;;2.18;91.22
74329;BME280;62749;51.982;5.916;2023-01-19T01:15:56;99824.03;;;2.16;91.09
74329;BME280;62749;51.982;5.916;2023-01-19T01:18:26;99829.25;;;2.14;91.17
74329;BME280;62749;51.982;5.916;2023-01-19T01:21:00;99816.25;;;2.13;91.42
74329;BME280;62749;51.982;5.916;2023-01-19T01:23:33;99822.38;;;2.12;91.30
74329;BME280;62749;51.982;5.916;2023-01-19T01:26:02;99833.63;;;2.14;91.01
74329;BME280;62749;51.982;5.916;2023-01-19T01:28:31;99829.28;;;2.13;91.24
74329;BME280;62749;51.982;5.916;2023-01-19T01:31:01;99827.63;;;2.09;91.00
74329;BME280;62749;51.982;5.916;2023-01-19T01:33:30;99828.44;;;2.12;91.09
74329;BME280;62749;51.982;5.916;2023-01-19T01:36:00;99828.44;;;2.12;91.27
74329;BME280;62749;51.982;5.916;2023-01-19T01:38:32;99820.53;;;2.17;91.34
74329;BME280;62749;51.982;5.916;2023-01-19T01:41:01;99814.38;;;2.20;91.12
74329;BME280;62749;51.982;5.916;2023-01-19T01:43:42;99816.25;;;2.13;91.35
74329;BME280;62749;51.982;5.916;2023-01-19T01:46:12;99816.16;;;2.18;91.06
74329;BME280;62749;51.982;5.916;2023-01-19T01:48:50;99804.88;;;2.17;91.21
74329;BME280;62749;51.982;5.916;2023-01-19T01:51:27;99811.84;;;2.17;91.18
74329;BME280;62749;51.982;5.916;2023-01-19T01:54:07;99810.28;;;2.09;91.23
74329;BME280;62749;51.982;5.916;2023-01-19T01:56:42;99810.50;;;2.00;91.76
74329;BME280;62749;51.982;5.916;2023-01-19T01:59:15;99803.34;;;2.08;91.88
74329;BME280;62749;51.982;5.916;2023-01-19T02:01:57;99811.13;;;2.10;91.42
74329;BME280;62749;51.982;5.916;2023-01-19T02:04:46;99817.47;;;1.98;91.78
74329;BME280;62749;51.982;5.916;2023-01-19T02:07:25;99823.03;;;1.81;91.59
74329;BME280;62749;51.982;5.916;2023-01-19T02:10:12;99845.63;;;1.80;92.21
74329;BME280;62749;51.982;5.916;2023-01-19T02:12:56;99819.78;;;1.69;92.42
74329;BME280;62749;51.982;5.916;2023-01-19T02:15:38;99825.19;;;1.60;92.32
74329;BME280;62749;51.982;5.916;2023-01-19T02:18:07;99825.34;;;1.54;92.62
74329;BME280;62749;51.982;5.916;2023-01-19T02:20:41;99823.69;;;1.50;92.87
74329;BME280;62749;51.982;5.916;2023-01-19T02:23:19;99833.41;;;1.40;93.21
74329;BME280;62749;51.982;5.916;2023-01-19T02:25:53;99837.78;;;1.40;93.23
74329;BME280;62749;51.982;5.916;2023-01-19T02:28:23;99837.81;;;1.36;93.25
74329;BME280;62749;51.982;5.916;2023-01-19T02:30:52;99818.09;;;1.25;92.96
74329;BME280;62749;51.982;5.916;2023-01-19T02:33:22;99830.66;;;1.01;92.43
74329;BME280;62749;51.982;5.916;2023-01-19T02:35:55;99832.44;;;0.99;92.85
74329;BME280;62749;51.982;5.916;2023-01-19T02:38:27;99843.88;;;0.90;92.86
74329;BME280;62749;51.982;5.916;2023-01-19T02:41:03;99846.63;;;0.82;92.96
74329;BME280;62749;51.982;5.916;2023-01-19T02:43:35;99854.53;;;0.74;93.61
74329;BME280;62749;51.982;5.916;2023-01-19T02:46:05;99856.19;;;0.80;94.12
74329;BME280;62749;51.982;5.916;2023-01-19T02:48:35;99842.22;;;0.84;93.66
74329;BME280;62749;51.982;5.916;2023-01-19T02:51:12;99849.25;;;0.77;93.93
74329;BME280;62749;51.982;5.916;2023-01-19T02:54:09;99844.97;;;0.76;94.24
74329;BME280;62749;51.982;5.916;2023-01-19T02:56:59;99852.56;;;0.89;94.51
74329;BME280;62749;51.982;5.916;2023-01-19T02:59:47;99851.59;;;0.93;94.32
74329;BME280;62749;51.982;5.916;2023-01-19T03:02:32;99842.16;;;0.87;94.29
74329;BME280;62749;51.982;5.916;2023-01-19T03:05:29;99850.03;;;0.84;94.38
74329;BME280;62749;51.982;5.916;2023-01-19T03:08:07;99849.97;;;0.87;94.76
74329;BME280;62749;51.982;5.916;2023-01-19T03:10:52;99851.59;;;0.95;94.76
74329;BME280;62749;51.982;5.916;2023-01-19T03:13:35;99861.03;;;0.99;94.77
74329;BME280;62749;51.982;5.916;2023-01-19T03:16:15;99862.00;;;0.95;94.32
74329;BME280;62749;51.982;5.916;2023-01-19T03:18:53;99856.09;;;0.85;94.53
74329;BME280;62749;51.982;5.916;2023-01-19T03:21:26;99873.38;;;0.87;94.52
74329;BME280;62749;51.982;5.916;2023-01-19T03:24:01;99867.28;;;0.90;94.41
74329;BME280;62749;51.982;5.916;2023-01-19T03:26:36;99869.06;;;0.86;94.25
74329;BME280;62749;51.982;5.916;2023-01-19T03:29:13;99881.22;;;0.84;94.35
74329;BME280;62749;51.982;5.916;2023-01-19T03:31:46;99881.31;;;0.81;94.27
74329;BME280;62749;51.982;5.916;2023-01-19T03:34:19;99882.09;;;0.85;94.18
74329;BME280;62749;51.982;5.916;2023-01-19T03:36:52;99889.81;;;0.89;94.15
74329;BME280;62749;51.982;5.916;2023-01-19T03:39:26;99882.91;;;0.90;94.01
74329;BME280;62749;51.982;5.916;2023-01-19T03:42:00;99878.59;;;0.87;94.26
74329;BME280;62749;51.982;5.916;2023-01-19T03:44:36;99882.03;;;0.89;93.97
74329;BME280;62749;51.982;5.916;2023-01-19T03:47:09;99893.22;;;0.93;94.16
74329;BME280;62749;51.982;5.916;2023-01-19T03:49:42;99889.81;;;0.89;94.29
74329;BME280;62749;51.982;5.916;2023-01-19T03:52:13;99891.38;;;1.00;94.31
74329;BME280;62749;51.982;5.916;2023-01-19T03:54:42;99890.50;;;1.01;94.45
74329;BME280;62749;51.982;5.916;2023-01-19T03:57:12;99889.56;;;1.05;94.41
74329;BME280;62749;51.982;5.916;2023-01-19T03:59:44;99895.53;;;1.12;94.64
74329;BME280;62749;51.982;5.916;2023-01-19T04:02:13;99892.09;;;1.10;94.61
74329;BME280;62749;51.982;5.916;2023-01-19T04:04:42;99895.41;;;1.18;95.06
74329;BME280;62749;51.982;5.916;2023-01-19T04:07:12;99904.78;;;1.27;95.05
74329;BME280;62749;51.982;5.916;2023-01-19T04:09:41;99902.88;;;1.36;94.89
74329;BME280;62749;51.982;5.916;2023-01-19T04:12:10;99900.25;;;1.40;94.62
74329;BME280;62749;51.982;5.916;2023-01-19T04:14:40;99901.97;;;1.41;94.82
74329;BME280;62749;51.982;5.916;2023-01-19T04:17:12;99896.63;;;1.48;95.01
74329;BME280;62749;51.982;5.916;2023-01-19T04:19:42;99900.00;;;1.52;94.86
74329;BME280;62749;51.982;5.916;2023-01-19T04:22:11;99905.25;;;1.49;94.72
74329;BME280;62749;51.982;5.916;2023-01-19T04:24:40;99900.00;;;1.52;94.75
74329;BME280;62749;51.982;5.916;2023-01-19T04:27:10;99909.50;;;1.55;94.54
74329;BME280;62749;51.982;5.916;2023-01-19T04:29:40;99898.38;;;1.46;94.17
74329;BME280;62749;51.982;5.916;2023-01-19T04:32:12;99893.22;;;1.43;94.15
74329;BME280;62749;51.982;5.916;2023-01-19T04:34:42;99875.41;;;1.20;94.29
74329;BME280;62749;51.982;5.916;2023-01-19T04:37:11;99923.69;;;1.38;94.14
74329;BME280;62749;51.982;5.916;2023-01-19T04:39:40;99923.75;;;1.35;94.14
74329;BME280;62749;51.982;5.916;2023-01-19T04:42:10;99925.47;;;1.34;93.97
74329;BME280;62749;51.982;5.916;2023-01-19T04:44:39;99930.72;;;1.33;94.24
74329;BME280;62749;51.982;5.916;2023-01-19T04:47:08;99931.47;;;1.38;94.29
74329;BME280;62749;51.982;5.916;2023-01-19T04:49:40;99929.72;;;1.40;94.26
74329;BME280;62749;51.982;5.916;2023-01-19T04:52:10;99925.44;;;1.37;94.09
74329;BME280;62749;51.982;5.916;2023-01-19T04:54:39;99922.78;;;1.39;94.04
74329;BME280;62749;51.982;5.916;2023-01-19T04:57:08;99925.44;;;1.36;94.00
74329;BME280;62749;51.982;5.916;2023-01-19T04:59:38;99928.91;;;1.36;94.46
74329;BME280;62749;51.982;5.916;2023-01-19T05:02:07;99938.31;;;1.44;94.17
74329;BME280;62749;51.982;5.916;2023-01-19T05:04:39;99939.16;;;1.46;94.19
74329;BME280;62749;51.982;5.916;2023-01-19T05:07:09;99939.91;;;1.54;94.22
74329;BME280;62749;51.982;5.916;2023-01-19T05:09:38;99948.63;;;1.50;94.04
74329;BME280;62749;51.982;5.916;2023-01-19T05:12:08;99944.31;;;1.49;94.14
74329;BME280;62749;51.982;5.916;2023-01-19T05:14:37;99934.69;;;1.52;93.87
74329;BME280;62749;51.982;5.916;2023-01-19T05:17:07;99931.31;;;1.49;94.22
74329;BME280;62749;51.982;5.916;2023-01-19T05:19:36;99938.97;;;1.57;94.17
74329;BME280;62749;51.982;5.916;2023-01-19T05:22:08;99951.00;;;1.62;94.20
74329;BME280;62749;51.982;5.916;2023-01-19T05:24:38;99941.44;;;1.63;93.76
74329;BME280;62749;51.982;5.916;2023-01-19T05:27:07;99941.59;;;1.55;93.80
74329;BME280;62749;51.982;5.916;2023-01-19T05:29:37;99945.81;;;1.62;93.83
74329;BME280;62749;51.982;5.916;2023-01-19T05:32:06;99946.66;;;1.63;93.78
74329;BME280;62749;51.982;5.916;2023-01-19T05:34:36;99954.44;;;1.64;93.96
74329;BME280;62749;51.982;5.916;2023-01-19T05:37:08;99951.84;;;1.63;93.62
74329;BME280;62749;51.982;5.916;2023-01-19T05:39:37;99964.84;;;1.66;93.99
74329;BME280;62749;51.982;5.916;2023-01-19T05:42:06;99962.19;;;1.69;93.76
74329;BME280;62749;51.982;5.916;2023-01-19T05:44:36;99965.63;;;1.71;93.91
74329;BME280;62749;51.982;5.916;2023-01-19T05:47:05;99969.06;;;1.73;93.56
74329;BME280;62749;51.982;5.916;2023-01-19T05:49:35;99968.97;;;1.78;93.46
74329;BME280;62749;51.982;5.916;2023-01-19T05:52:04;99981.03;;;1.82;93.34
74329;BME280;62749;51.982;5.916;2023-01-19T05:54:36;99976.63;;;1.86;92.94
74329;BME280;62749;51.982;5.916;2023-01-19T05:57:05;99977.38;;;1.92;92.88
74329;BME280;62749;51.982;5.916;2023-01-19T05:59:36;99971.34;;;1.89;92.71
74329;BME280;62749;51.982;5.916;2023-01-19T06:02:05;99977.53;;;1.84;92.79
74329;BME280;62749;51.982;5.916;2023-01-19T06:04:34;99985.25;;;1.89;92.67
74329;BME280;62749;51.982;5.916;2023-01-19T06:07:04;99983.47;;;1.90;92.69
74329;BME280;62749;51.982;5.916;2023-01-19T06:09:36;99992.19;;;1.89;92.70
74329;BME280;62749;51.982;5.916;2023-01-19T06:12:05;99987.00;;;1.87;92.59
74329;BME280;62749;51.982;5.916;2023-01-19T06:14:35;99986.97;;;1.90;92.78
74329;BME280;62749;51.982;5.916;2023-01-19T06:17:04;100001.72;;;1.91;92.59
74329;BME280;62749;51.982;5.916;2023-01-19T06:19:34;100004.22;;;1.96;92.76
74329;BME280;62749;51.982;5.916;2023-01-19T06:22:03;99991.22;;;1.94;92.56
74329;BME280;62749;51.982;5.916;2023-01-19T06:24:32;100008.50;;;1.98;92.45
74329;BME280;62749;51.982;5.916;2023-01-19T06:27:05;100012.78;;;2.01;92.44
74329;BME280;62749;51.982;5.916;2023-01-19T06:29:34;100016.13;;;2.09;92.36
74329;BME280;62749;51.982;5.916;2023-01-19T06:32:05;100024.78;;;2.10;92.43
74329;BME280;62749;51.982;5.916;2023-01-19T06:34:34;100014.28;;;2.14;92.74
74329;BME280;62749;51.982;5.916;2023-01-19T06:37:05;100018.44;;;2.23;92.62
74329;BME280;62749;51.982;5.916;2023-01-19T06:39:36;100027.03;;;2.28;92.22
74329;BME280;62749;51.982;5.916;2023-01-19T06:42:09;100018.34;;;2.29;92.34
74329;BME280;62749;51.982;5.916;2023-01-19T06:44:38;100032.84;;;2.41;92.27
74329;BME280;62749;51.982;5.916;2023-01-19T06:47:20;100034.63;;;2.39;91.94
74329;BME280;62749;51.982;5.916;2023-01-19T06:49:49;100035.56;;;2.38;92.02
74329;BME280;62749;51.982;5.916;2023-01-19T06:52:19;100047.72;;;2.38;91.80
74329;BME280;62749;51.982;5.916;2023-01-19T06:54:48;100046.78;;;2.40;92.08
74329;BME280;62749;51.982;5.916;2023-01-19T06:57:20;100049.47;;;2.36;91.78
74329;BME280;62749;51.982;5.916;2023-01-19T06:59:51;100058.03;;;2.42;91.71
74329;BME280;62749;51.982;5.916;2023-01-19T07:02:20;100074.56;;;2.43;91.62
74329;BME280;62749;51.982;5.916;2023-01-19T07:04:50;100073.78;;;2.38;91.77
74329;BME280;62749;51.982;5.916;2023-01-19T07:07:19;100083.22;;;2.43;91.56
74329;BME280;62749;51.982;5.916;2023-01-19T07:09:49;100080.50;;;2.50;91.29
74329;BME280;62749;51.982;5.916;2023-01-19T07:12:21;100083.41;;;2.34;91.26
74329;BME280;62749;51.982;5.916;2023-01-19T07:14:51;100095.56;;;2.35;91.31
74329;BME280;62749;51.982;5.916;2023-01-19T07:17:20;100099.06;;;2.34;91.46
74329;BME280;62749;51.982;5.916;2023-01-19T07:19:50;100106.88;;;2.33;91.39
74329;BME280;62749;51.982;5.916;2023-01-19T07:22:19;100109.59;;;2.28;91.37
74329;BME280;62749;51.982;5.916;2023-01-19T07:24:49;100119.22;;;2.24;91.49
74329;BME280;62749;51.982;5.916;2023-01-19T07:27:24;100121.72;;;2.30;91.79
74329;BME280;62749;51.982;5.916;2023-01-19T07:29:54;100119.22;;;2.24;91.97
74329;BME280;62749;51.982;5.916;2023-01-19T07:32:23;100122.69;;;2.25;92.05
74329;BME280;62749;51.982;5.916;2023-01-19T07:34:53;100128.72;;;2.27;92.50
74329;BME280;62749;51.982;5.916;2023-01-19T07:37:22;100152.88;;;2.37;92.31
74329;BME280;62749;51.982;5.916;2023-01-19T07:39:51;100139.84;;;2.38;92.35
74329;BME280;62749;51.982;5.916;2023-01-19T07:42:23;100147.69;;;2.35;92.02
74329;BME280;62749;51.982;5.916;2023-01-19T07:44:53;100152.97;;;2.32;91.75
74329;BME280;62749;51.982;5.916;2023-01-19T07:47:22;100150.53;;;2.21;91.81
74329;BME280;62749;51.982;5.916;2023-01-19T07:49:52;100157.59;;;2.16;92.09
74329;BME280;62749;51.982;5.916;2023-01-19T07:52:21;100155.91;;;2.12;92.17
74329;BME280;62749;51.982;5.916;2023-01-19T07:54:51;100171.59;;;2.10;92.16
74329;BME280;62749;51.982;5.916;2023-01-19T07:57:23;100164.66;;;2.08;92.17
74329;BME280;62749;51.982;5.916;2023-01-19T07:59:52;100174.25;;;2.07;92.04
74329;BME280;62749;51.982;5.916;2023-01-19T08:02:22;100174.22;;;2.09;92.03
74329;BME280;62749;51.982;5.916;2023-01-19T08:04:51;100181.13;;;2.11;92.20
74329;BME280;62749;51.982;5.916;2023-01-19T08:07:21;100185.47;;;2.12;91.99
74329;BME280;62749;51.982;5.916;2023-01-19T08:09:50;100188.88;;;2.14;92.24
74329;BME280;62749;51.982;5.916;2023-01-19T08:12:19;100198.34;;;2.22;92.14
74329;BME280;62749;51.982;5.916;2023-01-19T08:14:52;100204.31;;;2.28;92.02
74329;BME280;62749;51.982;5.916;2023-01-19T08:17:21;100202.63;;;2.24;91.58
74329;BME280;62749;51.982;5.916;2023-01-19T08:19:50;100207.91;;;2.20;91.96
74329;BME280;62749;51.982;5.916;2023-01-19T08:22:20;100206.16;;;2.20;92.05
74329;BME280;62749;51.982;5.916;2023-01-19T08:24:49;100209.59;;;2.24;92.15
74329;BME280;62749;51.982;5.916;2023-01-19T08:27:20;100207.75;;;2.30;91.95
74329;BME280;62749;51.982;5.916;2023-01-19T08:29:52;100212.19;;;2.24;91.80
74329;BME280;62749;51.982;5.916;2023-01-19T08:32:22;100230.34;;;2.30;91.98
74329;BME280;62749;51.982;5.916;2023-01-19T08:34:51;100233.81;;;2.29;91.84
74329;BME280;62749;51.982;5.916;2023-01-19T08:37:20;100232.19;;;2.25;92.06
74329;BME280;62749;51.982;5.916;2023-01-19T08:39:50;100236.50;;;2.24;91.89
74329;BME280;62749;51.982;5.916;2023-01-19T08:42:19;100233.03;;;2.25;92.29
74329;BME280;62749;51.982;5.916;2023-01-19T08:44:49;100254.03;;;2.14;92.50
74329;BME280;62749;51.982;5.916;2023-01-19T08:47:21;100247.16;;;2.10;92.81
74329;BME280;62749;51.982;5.916;2023-01-19T08:49:50;100253.16;;;2.17;93.07
74329;BME280;62749;51.982;5.916;2023-01-19T08:52:19;100247.06;;;2.17;93.06
74329;BME280;62749;51.982;5.916;2023-01-19T08:54:51;100238.28;;;2.24;93.35
74329;BME280;62749;51.982;5.916;2023-01-19T08:57:21;100240.81;;;2.27;93.30
74329;BME280;62749;51.982;5.916;2023-01-19T08:59:58;100250.41;;;2.25;93.44
74329;BME280;62749;51.982;5.916;2023-01-19T09:02:30;100253.78;;;2.30;93.45
74329;BME280;62749;51.982;5.916;2023-01-19T09:05:00;100256.28;;;2.38;93.08
74329;BME280;62749;51.982;5.916;2023-01-19T09:07:29;100259.72;;;2.40;93.15
74329;BME280;62749;51.982;5.916;2023-01-19T09:09:59;100251.06;;;2.38;92.93
74329;BME280;62749;51.982;5.916;2023-01-19T09:12:28;100265.72;;;2.45;93.02
74329;BME280;62749;51.982;5.916;2023-01-19T09:14:58;100260.53;;;2.45;93.03
74329;BME280;62749;51.982;5.916;2023-01-19T09:17:30;100263.97;;;2.45;93.05
74329;BME280;62749;51.982;5.916;2023-01-19T09:19:59;100276.00;;;2.53;93.13
74329;BME280;62749;51.982;5.916;2023-01-19T09:22:29;100280.25;;;2.58;93.18
74329;BME280;62749;51.982;5.916;2023-01-19T09:24:59;100280.16;;;2.65;92.99
74329;BME280;62749;51.982;5.916;2023-01-19T09:27:29;100274.09;;;2.64;92.75
74329;BME280;62749;51.982;5.916;2023-01-19T09:29:59;100296.56;;;2.71;92.88
74329;BME280;62749;51.982;5.916;2023-01-19T09:32:31;100275.78;;;2.65;93.13
74329;BME280;62749;51.982;5.916;2023-01-19T09:35:01;100287.69;;;2.82;92.66
74329;BME280;62749;51.982;5.916;2023-01-19T09:37:30;100279.84;;;2.82;92.80
74329;BME280;62749;51.982;5.916;2023-01-19T09:39:59;100285.81;;;2.90;92.70
74329;BME280;62749;51.982;5.916;2023-01-19T09:42:37;100286.53;;;2.98;92.62
74329;BME280;62749;51.982;5.916;2023-01-19T09:45:15;100282.88;;;3.07;92.16
74329;BME280;62749;51.982;5.916;2023-01-19T09:47:51;100290.44;;;3.21;92.03
74329;BME280;62749;51.982;5.916;2023-01-19T09:50:26;100287.72;;;3.27;91.85
74329;BME280;62749;51.982;5.916;2023-01-19T09:53:08;100289.44;;;3.28;91.14
74329;BME280;62749;51.982;5.916;2023-01-19T09:55:42;100286.63;;;3.37;91.29
74329;BME280;62749;51.982;5.916;2023-01-19T09:58:13;100294.16;;;3.53;90.92
74329;BME280;62749;51.982;5.916;2023-01-19T10:00:51;100298.31;;;3.62;90.15
74329;BME280;62749;51.982;5.916;2023-01-19T10:03:25;100304.25;;;3.70;89.60
74329;BME280;62749;51.982;5.916;2023-01-19T10:06:00;100305.91;;;3.74;89.16
74329;BME280;62749;51.982;5.916;2023-01-19T10:08:39;100302.94;;;3.91;89.22
74329;BME280;62749;51.982;5.916;2023-01-19T10:11:27;100293.31;;;3.92;88.47
74329;BME280;62749;51.982;5.916;2023-01-19T10:13:59;100303.66;;;3.96;88.23
74329;BME280;62749;51.982;5.916;2023-01-19T10:16:37;100314.28;;;3.89;87.79
74329;BME280;62749;51.982;5.916;2023-01-19T10:19:20;100311.56;;;3.95;87.71
74329;BME280;62749;51.982;5.916;2023-01-19T10:21:56;100314.84;;;4.05;87.44
74329;BME280;62749;51.982;5.916;2023-01-19T10:24:36;100319.97;;;4.08;87.43
74329;BME280;62749;51.982;5.916;2023-01-19T10:27:15;100324.13;;;4.17;86.98
74329;BME280;62749;51.982;5.916;2023-01-19T10:29:45;100324.56;;;4.36;87.17
74329;BME280;62749;51.982;5.916;2023-01-19T10:32:17;100326.00;;;4.49;86.19
74329;BME280;62749;51.982;5.916;2023-01-19T10:34:51;100325.16;;;4.49;85.56
74329;BME280;62749;51.982;5.916;2023-01-19T10:37:28;100326.06;;;4.46;85.43
74329;BME280;62749;51.982;5.916;2023-01-19T10:40:12;100323.56;;;4.41;84.99
74329;BME280;62749;51.982;5.916;2023-01-19T10:42:45;100328.72;;;4.44;84.66
74329;BME280;62749;51.982;5.916;2023-01-19T10:45:15;100328.50;;;4.54;84.50
74329;BME280;62749;51.982;5.916;2023-01-19T10:47:47;100321.88;;;4.75;83.09
74329;BME280;62749;51.982;5.916;2023-01-19T10:50:26;100330.47;;;4.80;82.79
74329;BME280;62749;51.982;5.916;2023-01-19T10:52:58;100328.75;;;4.79;82.08
74329;BME280;62749;51.982;5.916;2023-01-19T10:55:30;100327.16;;;4.72;83.55
74329;BME280;62749;51.982;5.916;2023-01-19T10:58:00;100326.69;;;4.57;84.52
74329;BME280;62749;51.982;5.916;2023-01-19T11:00:33;100331.69;;;4.30;85.24
74329;BME280;62749;51.982;5.916;2023-01-19T11:03:04;100337.28;;;4.13;85.71
74329;BME280;62749;51.982;5.916;2023-01-19T11:05:36;100332.97;;;4.11;86.56
74329;BME280;62749;51.982;5.916;2023-01-19T11:08:21;100332.75;;;4.20;85.75
74329;BME280;62749;51.982;5.916;2023-01-19T11:10:53;100337.97;;;4.22;86.66
74329;BME280;62749;51.982;5.916;2023-01-19T11:13:24;100340.59;;;4.20;86.50
74329;BME280;62749;51.982;5.916;2023-01-19T11:15:55;100345.00;;;4.20;86.52
74329;BME280;62749;51.982;5.916;2023-01-19T11:18:28;100347.78;;;4.12;86.40
74329;BME280;62749;51.982;5.916;2023-01-19T11:21:05;100335.69;;;4.06;86.07
74329;BME280;62749;51.982;5.916;2023-01-19T11:23:38;100342.47;;;4.15;86.21
74329;BME280;62749;51.982;5.916;2023-01-19T11:26:14;100340.69;;;4.17;86.27
74329;BME280;62749;51.982;5.916;2023-01-19T11:28:55;100338.91;;;4.19;85.70
74329;BME280;62749;51.982;5.916;2023-01-19T11:31:33;100342.31;;;4.21;85.24
74329;BME280;62749;51.982;5.916;2023-01-19T11:34:04;100347.47;;;4.26;86.05
74329;BME280;62749;51.982;5.916;2023-01-19T11:36:36;100342.97;;;4.31;85.09
74329;BME280;62749;51.982;5.916;2023-01-19T11:39:20;100342.03;;;4.34;85.41
74329;BME280;62749;51.982;5.916;2023-01-19T11:41:52;100343.88;;;4.32;84.95
74329;BME280;62749;51.982;5.916;2023-01-19T11:44:25;100342.84;;;4.37;85.35
74329;BME280;62749;51.982;5.916;2023-01-19T11:46:58;100343.22;;;4.58;85.01
74329;BME280;62749;51.982;5.916;2023-01-19T11:49:37;100345.97;;;4.53;84.92
74329;BME280;62749;51.982;5.916;2023-01-19T11:52:19;100339.25;;;4.41;83.97
74329;BME280;62749;51.982;5.916;2023-01-19T11:54:59;100350.66;;;4.39;83.89
74329;BME280;62749;51.982;5.916;2023-01-19T11:57:30;100346.38;;;4.35;84.00
74329;BME280;62749;51.982;5.916;2023-01-19T12:00:04;100354.94;;;4.41;85.04
74329;BME280;62749;51.982;5.916;2023-01-19T12:02:52;100355.81;;;4.42;84.74
74329;BME280;62749;51.982;5.916;2023-01-19T12:05:29;100347.00;;;4.46;84.03
74329;BME280;62749;51.982;5.916;2023-01-19T12:08:05;100351.00;;;4.61;84.92
74329;BME280;62749;51.982;5.916;2023-01-19T12:10:44;100333.53;;;4.63;84.92
74329;BME280;62749;51.982;5.916;2023-01-19T12:13:20;100342.28;;;4.60;84.98
74329;BME280;62749;51.982;5.916;2023-01-19T12:15:54;100350.28;;;4.54;84.12
74329;BME280;62749;51.982;5.916;2023-01-19T12:18:32;100344.38;;;4.46;84.75
74329;BME280;62749;51.982;5.916;2023-01-19T12:21:03;100337.22;;;4.54;85.30
74329;BME280;62749;51.982;5.916;2023-01-19T12:23:47;100334.47;;;4.59;84.78
74329;BME280;62749;51.982;5.916;2023-01-19T12:26:28;100336.94;;;4.65;84.35
74329;BME280;62749;51.982;5.916;2023-01-19T12:29:05;100337.75;;;4.67;83.93
74329;BME280;62749;51.982;5.916;2023-01-19T12:31:39;100341.78;;;4.81;84.32
74329;BME280;62749;51.982;5.916;2023-01-19T12:34:28;100344.16;;;4.91;84.23
74329;BME280;62749;51.982;5.916;2023-01-19T12:37:03;100353.66;;;4.96;83.60
74329;BME280;62749;51.982;5.916;2023-01-19T12:39:47;100347.59;;;4.94;82.89
74329;BME280;62749;51.982;5.916;2023-01-19T12:42:16;100344.28;;;4.85;82.98
74329;BME280;62749;51.982;5.916;2023-01-19T12:44:47;100349.31;;;4.95;84.04
74329;BME280;62749;51.982;5.916;2023-01-19T12:47:27;100336.88;;;5.03;83.47
74329;BME280;62749;51.982;5.916;2023-01-19T12:49:58;100340.84;;;5.18;82.62
74329;BME280;62749;51.982;5.916;2023-01-19T12:52:39;100341.63;;;5.21;81.61
74329;BME280;62749;51.982;5.916;2023-01-19T12:55:22;100332.06;;;5.20;81.43
74329;BME280;62749;51.982;5.916;2023-01-19T12:58:05;100327.88;;;5.13;80.86
74329;BME280;62749;51.982;5.916;2023-01-19T13:00:37;100340.97;;;5.13;81.57
74329;BME280;62749;51.982;5.916;2023-01-19T13:06:07;100334.38;;;4.98;81.83
74329;BME280;62749;51.982;5.916;2023-01-19T13:08:55;100341.66;;;4.87;81.80
74329;BME280;62749;51.982;5.916;2023-01-19T13:11:27;100340.69;;;4.89;81.97
74329;BME280;62749;51.982;5.916;2023-01-19T13:17:27;100338.13;;;4.88;80.52
74329;BME280;62749;51.982;5.916;2023-01-19T13:20:27;100350.41;;;4.86;80.49
74329;BME280;62749;51.982;5.916;2023-01-19T13:23:19;100347.53;;;4.95;79.73
74329;BME280;62749;51.982;5.916;2023-01-19T13:26:00;100335.72;;;5.13;79.07
74329;BME280;62749;51.982;5.916;2023-01-19T13:28:38;100340.91;;;5.48;80.46
74329;BME280;62749;51.982;5.916;2023-01-19T13:31:10;100333.22;;;5.42;75.91
74329;BME280;62749;51.982;5.916;2023-01-19T13:33:47;100344.63;;;5.39;75.05
74329;BME280;62749;51.982;5.916;2023-01-19T13:36:22;100335.44;;;5.56;72.10
74329;BME280;62749;51.982;5.916;2023-01-19T13:38:56;100350.38;;;5.20;72.24
74329;BME280;62749;51.982;5.916;2023-01-19T13:41:30;100361.41;;;4.99;71.37